Andersonville, Indiana
Current Conditions -  °F | °C
As of 2:15 PM on Thursday 23 Oct 2014 (Local Time) from KI67 Reporting Station
Clear Clear  
Wind Chill: 57°   Ceiling: Unl
Heat Index: 57°   Visibility: 10mi
Dew Point: 41°   Wind: 3mph
Humidity: 55%   Direction: 330°NNW
Pressure: 30.19"   Gusts: NA
Location:  39.4846°N, 85.1967°W
Report Text: KI67 231815Z AUTO 33003KT 10SM CLR 14/05 A3019 RMK AO1
Loading
Personal Weather Stations






























Interactive Weather Map
Tropical Storm Tracking
New forecast layout! Learn more

10-Day Weather Forecast

Advertisements
Track Severe Weather on mobile